sensor_id;sensor_type;location;lat;lon;timestamp;pressure;altitude;pressure_sealevel;temperature;humidity
54876;BME280;40764;48.472;8.166;2022-11-20T00:04:27;97768.59;;;7.18;100.00
54876;BME280;40764;48.472;8.166;2022-11-20T00:10:27;97778.16;;;7.10;100.00
54876;BME280;40764;48.472;8.166;2022-11-20T00:16:30;97776.81;;;7.07;100.00
54876;BME280;40764;48.472;8.166;2022-11-20T00:22:31;97777.13;;;7.06;100.00
54876;BME280;40764;48.472;8.166;2022-11-20T00:28:31;97784.81;;;6.89;100.00
54876;BME280;40764;48.472;8.166;2022-11-20T00:34:32;97791.22;;;7.08;100.00
54876;BME280;40764;48.472;8.166;2022-11-20T00:40:32;97783.78;;;7.24;100.00
54876;BME280;40764;48.472;8.166;2022-11-20T00:46:32;97790.81;;;6.86;100.00
54876;BME280;40764;48.472;8.166;2022-11-20T00:52:33;97783.13;;;7.03;100.00
54876;BME280;40764;48.472;8.166;2022-11-20T00:58:35;97797.47;;;7.08;100.00
54876;BME280;40764;48.472;8.166;2022-11-20T01:04:36;97801.66;;;6.96;100.00
54876;BME280;40764;48.472;8.166;2022-11-20T01:10:36;97794.31;;;6.96;100.00
54876;BME280;40764;48.472;8.166;2022-11-20T01:16:39;97797.59;;;6.88;100.00
54876;BME280;40764;48.472;8.166;2022-11-20T01:22:40;97801.09;;;6.99;100.00
54876;BME280;40764;48.472;8.166;2022-11-20T01:28:41;97793.50;;;6.91;100.00
54876;BME280;40764;48.472;8.166;2022-11-20T01:34:42;97797.03;;;6.91;100.00
54876;BME280;40764;48.472;8.166;2022-11-20T01:40:42;97807.84;;;7.01;100.00
54876;BME280;40764;48.472;8.166;2022-11-20T01:47:01;97795.31;;;7.05;100.00
54876;BME280;40764;48.472;8.166;2022-11-20T01:53:10;97787.75;;;7.02;100.00
54876;BME280;40764;48.472;8.166;2022-11-20T01:59:15;97782.78;;;7.09;100.00
54876;BME280;40764;48.472;8.166;2022-11-20T02:05:23;97783.59;;;7.10;99.85
54876;BME280;40764;48.472;8.166;2022-11-20T02:11:25;97781.66;;;7.15;100.00
54876;BME280;40764;48.472;8.166;2022-11-20T02:17:26;97779.63;;;6.92;100.00
54876;BME280;40764;48.472;8.166;2022-11-20T02:23:32;97777.78;;;7.22;98.09
54876;BME280;40764;48.472;8.166;2022-11-20T02:29:37;97776.34;;;7.34;97.45
54876;BME280;40764;48.472;8.166;2022-11-20T02:35:43;97781.25;;;6.98;99.93
54876;BME280;40764;48.472;8.166;2022-11-20T02:41:44;97775.38;;;6.81;100.00
54876;BME280;40764;48.472;8.166;2022-11-20T02:47:44;97768.00;;;6.87;100.00
54876;BME280;40764;48.472;8.166;2022-11-20T02:53:45;97772.28;;;6.98;99.45
54876;BME280;40764;48.472;8.166;2022-11-20T02:59:45;97772.78;;;7.05;100.00
54876;BME280;40764;48.472;8.166;2022-11-20T03:05:45;97776.44;;;6.85;100.00
54876;BME280;40764;48.472;8.166;2022-11-20T03:11:46;97780.84;;;6.76;100.00
54876;BME280;40764;48.472;8.166;2022-11-20T03:17:46;97775.63;;;6.84;99.12
54876;BME280;40764;48.472;8.166;2022-11-20T03:23:47;97782.91;;;6.94;99.77
54876;BME280;40764;48.472;8.166;2022-11-20T03:29:47;97779.63;;;6.92;98.08
54876;BME280;40764;48.472;8.166;2022-11-20T03:35:47;97784.84;;;6.83;100.00
54876;BME280;40764;48.472;8.166;2022-11-20T03:41:47;97783.72;;;6.95;99.46
54876;BME280;40764;48.472;8.166;2022-11-20T03:47:48;97779.59;;;7.02;99.04
54876;BME280;40764;48.472;8.166;2022-11-20T03:53:51;97779.88;;;7.01;100.00
54876;BME280;40764;48.472;8.166;2022-11-20T03:59:52;97784.63;;;7.19;99.06
54876;BME280;40764;48.472;8.166;2022-11-20T04:05:52;97778.31;;;7.29;98.71
54876;BME280;40764;48.472;8.166;2022-11-20T04:11:52;97775.28;;;6.96;99.35
54876;BME280;40764;48.472;8.166;2022-11-20T04:17:54;97780.72;;;6.96;100.00
54876;BME280;40764;48.472;8.166;2022-11-20T04:23:55;97772.06;;;6.89;100.00
54876;BME280;40764;48.472;8.166;2022-11-20T04:29:55;97768.69;;;7.07;100.00
54876;BME280;40764;48.472;8.166;2022-11-20T04:36:00;97778.41;;;7.13;99.31
54876;BME280;40764;48.472;8.166;2022-11-20T04:42:01;97779.06;;;7.00;99.57
54876;BME280;40764;48.472;8.166;2022-11-20T04:48:19;97771.53;;;7.21;99.30
54876;BME280;40764;48.472;8.166;2022-11-20T04:54:20;97781.59;;;7.21;97.47
54876;BME280;40764;48.472;8.166;2022-11-20T05:00:20;97785.88;;;6.98;97.80
54876;BME280;40764;48.472;8.166;2022-11-20T05:06:21;97783.41;;;7.01;97.77
54876;BME280;40764;48.472;8.166;2022-11-20T05:12:22;97772.78;;;7.05;97.28
54876;BME280;40764;48.472;8.166;2022-11-20T05:18:22;97771.47;;;6.92;97.26
54876;BME280;40764;48.472;8.166;2022-11-20T05:24:22;97762.47;;;7.02;95.73
54876;BME280;40764;48.472;8.166;2022-11-20T05:30:23;97773.00;;;7.08;94.43
54876;BME280;40764;48.472;8.166;2022-11-20T05:36:23;97760.00;;;7.05;92.77
54876;BME280;40764;48.472;8.166;2022-11-20T05:42:23;97772.19;;;7.08;93.97
54876;BME280;40764;48.472;8.166;2022-11-20T05:48:34;97764.78;;;7.19;93.07
54876;BME280;40764;48.472;8.166;2022-11-20T05:54:34;97761.66;;;7.35;89.75
54876;BME280;40764;48.472;8.166;2022-11-20T06:00:34;97758.59;;;7.42;89.25
54876;BME280;40764;48.472;8.166;2022-11-20T06:06:37;97767.78;;;7.17;90.98
54876;BME280;40764;48.472;8.166;2022-11-20T06:12:38;97767.97;;;7.31;90.74
54876;BME280;40764;48.472;8.166;2022-11-20T06:18:38;97770.91;;;7.34;90.81
54876;BME280;40764;48.472;8.166;2022-11-20T06:24:39;97780.78;;;7.25;90.21
54876;BME280;40764;48.472;8.166;2022-11-20T06:30:44;97779.31;;;7.38;90.96
54876;BME280;40764;48.472;8.166;2022-11-20T06:36:46;97769.44;;;7.47;90.36
54876;BME280;40764;48.472;8.166;2022-11-20T06:42:46;97770.41;;;7.61;88.17
54876;BME280;40764;48.472;8.166;2022-11-20T06:48:47;97764.13;;;7.32;89.82
54876;BME280;40764;48.472;8.166;2022-11-20T06:54:47;97769.13;;;7.54;87.73
54876;BME280;40764;48.472;8.166;2022-11-20T07:00:48;97774.06;;;7.46;88.57
54876;BME280;40764;48.472;8.166;2022-11-20T07:06:48;97777.16;;;7.35;89.75
54876;BME280;40764;48.472;8.166;2022-11-20T07:12:50;97773.31;;;7.41;89.74
54876;BME280;40764;48.472;8.166;2022-11-20T07:18:51;97781.31;;;7.22;90.84
54876;BME280;40764;48.472;8.166;2022-11-20T07:24:51;97782.84;;;7.38;89.77
54876;BME280;40764;48.472;8.166;2022-11-20T07:30:53;97800.91;;;7.24;90.91
54876;BME280;40764;48.472;8.166;2022-11-20T07:36:53;97789.72;;;7.31;91.44
54876;BME280;40764;48.472;8.166;2022-11-20T07:42:54;97797.25;;;7.39;91.72
54876;BME280;40764;48.472;8.166;2022-11-20T07:48:55;97794.28;;;7.35;91.10
54876;BME280;40764;48.472;8.166;2022-11-20T07:54:55;97803.25;;;7.36;91.77
54876;BME280;40764;48.472;8.166;2022-11-20T08:00:56;97806.44;;;7.09;93.24
54876;BME280;40764;48.472;8.166;2022-11-20T08:06:56;97810.50;;;7.11;93.55
54876;BME280;40764;48.472;8.166;2022-11-20T08:12:56;97816.72;;;7.17;93.52
54876;BME280;40764;48.472;8.166;2022-11-20T08:19:17;97816.66;;;7.22;94.29
54876;BME280;40764;48.472;8.166;2022-11-20T08:25:17;97832.72;;;7.24;93.95
54876;BME280;40764;48.472;8.166;2022-11-20T08:31:18;97837.59;;;7.22;95.12
54876;BME280;40764;48.472;8.166;2022-11-20T08:37:18;97834.94;;;7.17;95.63
54876;BME280;40764;48.472;8.166;2022-11-20T08:43:18;97848.75;;;7.25;95.92
54876;BME280;40764;48.472;8.166;2022-11-20T08:49:19;97852.28;;;7.26;94.99
54876;BME280;40764;48.472;8.166;2022-11-20T08:55:19;97860.16;;;7.27;93.66
54876;BME280;40764;48.472;8.166;2022-11-20T09:01:20;97862.56;;;7.34;94.11
54876;BME280;40764;48.472;8.166;2022-11-20T09:07:21;97867.13;;;7.38;93.71
54876;BME280;40764;48.472;8.166;2022-11-20T09:13:22;97871.53;;;7.34;93.95
54876;BME280;40764;48.472;8.166;2022-11-20T09:19:24;97866.50;;;7.52;92.41
54876;BME280;40764;48.472;8.166;2022-11-20T09:25:25;97882.50;;;7.58;92.13
54876;BME280;40764;48.472;8.166;2022-11-20T09:31:25;97883.66;;;7.52;92.22
54876;BME280;40764;48.472;8.166;2022-11-20T09:37:28;97899.28;;;7.70;90.45
54876;BME280;40764;48.472;8.166;2022-11-20T09:43:37;97897.50;;;7.90;89.91
54876;BME280;40764;48.472;8.166;2022-11-20T09:56:28;97904.56;;;7.91;90.39
54876;BME280;40764;48.472;8.166;2022-11-20T10:02:45;97908.91;;;8.21;88.94
54876;BME280;40764;48.472;8.166;2022-11-20T10:09:16;97900.13;;;8.29;86.99
54876;BME280;40764;48.472;8.166;2022-11-20T10:21:33;97904.34;;;8.16;87.00
54876;BME280;40764;48.472;8.166;2022-11-20T10:28:23;97891.53;;;8.17;86.09
54876;BME280;40764;48.472;8.166;2022-11-20T10:34:35;97900.09;;;8.34;85.99
54876;BME280;40764;48.472;8.166;2022-11-20T10:40:42;97896.06;;;8.55;84.92
54876;BME280;40764;48.472;8.166;2022-11-20T10:46:44;97881.50;;;8.65;83.80
54876;BME280;40764;48.472;8.166;2022-11-20T11:11:27;97876.25;;;8.21;84.12
54876;BME280;40764;48.472;8.166;2022-11-20T11:17:33;97846.00;;;8.51;83.51
54876;BME280;40764;48.472;8.166;2022-11-20T11:23:42;97832.31;;;8.56;83.59
54876;BME280;40764;48.472;8.166;2022-11-20T11:29:46;97826.25;;;8.83;82.39
54876;BME280;40764;48.472;8.166;2022-11-20T11:35:56;97813.06;;;8.90;83.24
54876;BME280;40764;48.472;8.166;2022-11-20T11:48:03;97805.91;;;8.94;83.87
54876;BME280;40764;48.472;8.166;2022-11-20T12:00:29;97776.91;;;9.55;79.56
54876;BME280;40764;48.472;8.166;2022-11-20T12:06:32;97768.03;;;9.30;79.98
54876;BME280;40764;48.472;8.166;2022-11-20T12:12:40;97762.38;;;8.89;78.82
54876;BME280;40764;48.472;8.166;2022-11-20T12:18:48;97776.94;;;9.17;78.84
54876;BME280;40764;48.472;8.166;2022-11-20T12:25:03;97767.91;;;9.03;76.39
54876;BME280;40764;48.472;8.166;2022-11-20T12:31:23;97768.28;;;8.96;74.93
54876;BME280;40764;48.472;8.166;2022-11-20T12:50:28;97768.63;;;8.71;75.43
54876;BME280;40764;48.472;8.166;2022-11-20T13:03:27;97763.03;;;8.81;74.85
54876;BME280;40764;48.472;8.166;2022-11-20T13:09:33;97752.09;;;9.19;75.12
54876;BME280;40764;48.472;8.166;2022-11-20T13:15:51;97749.31;;;9.56;74.01
54876;BME280;40764;48.472;8.166;2022-11-20T13:22:05;97739.41;;;9.60;73.36
54876;BME280;40764;48.472;8.166;2022-11-20T13:34:28;97701.72;;;9.76;74.63
54876;BME280;40764;48.472;8.166;2022-11-20T13:40:57;97696.50;;;9.93;71.99
54876;BME280;40764;48.472;8.166;2022-11-20T13:46:58;97701.06;;;9.52;75.85
54876;BME280;40764;48.472;8.166;2022-11-20T13:53:33;97698.66;;;9.50;78.47
54876;BME280;40764;48.472;8.166;2022-11-20T14:00:01;97693.00;;;8.82;84.85
54876;BME280;40764;48.472;8.166;2022-11-20T14:12:53;97679.28;;;8.87;87.33
54876;BME280;40764;48.472;8.166;2022-11-20T14:18:54;97676.44;;;8.41;88.73
54876;BME280;40764;48.472;8.166;2022-11-20T14:31:29;97668.19;;;8.46;88.85
54876;BME280;40764;48.472;8.166;2022-11-20T14:37:41;97650.31;;;8.40;89.35
54876;BME280;40764;48.472;8.166;2022-11-20T14:43:45;97630.31;;;8.25;91.43
54876;BME280;40764;48.472;8.166;2022-11-20T14:49:47;97624.03;;;7.87;93.33
54876;BME280;40764;48.472;8.166;2022-11-20T14:55:54;97628.66;;;8.05;92.17
54876;BME280;40764;48.472;8.166;2022-11-20T15:02:01;97603.91;;;7.64;93.85
54876;BME280;40764;48.472;8.166;2022-11-20T15:08:08;97614.72;;;8.12;92.58
54876;BME280;40764;48.472;8.166;2022-11-20T15:14:09;97608.38;;;7.74;93.67
54876;BME280;40764;48.472;8.166;2022-11-20T15:20:13;97615.00;;;7.44;95.27
54876;BME280;40764;48.472;8.166;2022-11-20T15:26:24;97608.16;;;7.46;95.09
54876;BME280;40764;48.472;8.166;2022-11-20T15:32:25;97618.06;;;7.37;95.93
54876;BME280;40764;48.472;8.166;2022-11-20T15:38:25;97614.69;;;7.22;96.61
54876;BME280;40764;48.472;8.166;2022-11-20T15:44:26;97596.66;;;7.31;96.15
54876;BME280;40764;48.472;8.166;2022-11-20T15:50:36;97597.28;;;7.46;95.61
54876;BME280;40764;48.472;8.166;2022-11-20T15:56:36;97594.00;;;7.50;93.37
54876;BME280;40764;48.472;8.166;2022-11-20T16:02:37;97585.38;;;7.42;90.48
54876;BME280;40764;48.472;8.166;2022-11-20T16:08:38;97591.69;;;7.62;89.32
54876;BME280;40764;48.472;8.166;2022-11-20T16:14:38;97602.47;;;7.91;86.92
54876;BME280;40764;48.472;8.166;2022-11-20T16:20:57;97602.88;;;7.79;84.61
54876;BME280;40764;48.472;8.166;2022-11-20T16:26:57;97600.22;;;7.74;84.97
54876;BME280;40764;48.472;8.166;2022-11-20T16:32:59;97593.75;;;7.70;84.58
54876;BME280;40764;48.472;8.166;2022-11-20T16:39:01;97586.63;;;7.74;83.81
54876;BME280;40764;48.472;8.166;2022-11-20T16:45:03;97589.00;;;7.81;83.90
54876;BME280;40764;48.472;8.166;2022-11-20T16:51:07;97572.94;;;7.79;83.13
54876;BME280;40764;48.472;8.166;2022-11-20T16:57:08;97575.25;;;7.91;82.98
54876;BME280;40764;48.472;8.166;2022-11-20T17:03:08;97587.09;;;7.81;81.67
54876;BME280;40764;48.472;8.166;2022-11-20T17:09:09;97576.69;;;7.64;83.34
54876;BME280;40764;48.472;8.166;2022-11-20T17:15:10;97563.53;;;7.53;84.18
54876;BME280;40764;48.472;8.166;2022-11-20T17:21:10;97542.84;;;7.52;84.21
54876;BME280;40764;48.472;8.166;2022-11-20T17:27:11;97552.97;;;7.46;86.04
54876;BME280;40764;48.472;8.166;2022-11-20T17:33:11;97542.78;;;7.57;83.65
54876;BME280;40764;48.472;8.166;2022-11-20T17:39:13;97552.69;;;7.47;83.98
54876;BME280;40764;48.472;8.166;2022-11-20T17:45:14;97567.66;;;7.45;84.99
54876;BME280;40764;48.472;8.166;2022-11-20T17:51:17;97547.13;;;7.58;84.72
54876;BME280;40764;48.472;8.166;2022-11-20T17:57:18;97555.16;;;7.68;82.73
54876;BME280;40764;48.472;8.166;2022-11-20T18:03:37;97565.16;;;7.72;81.61
54876;BME280;40764;48.472;8.166;2022-11-20T18:09:37;97573.97;;;7.17;84.71
54876;BME280;40764;48.472;8.166;2022-11-20T18:15:38;97552.47;;;6.96;85.96
54876;BME280;40764;48.472;8.166;2022-11-20T18:21:38;97561.34;;;6.44;88.10
54876;BME280;40764;48.472;8.166;2022-11-20T18:27:38;97567.38;;;6.99;85.73
54876;BME280;40764;48.472;8.166;2022-11-20T18:33:39;97585.41;;;6.56;88.46
54876;BME280;40764;48.472;8.166;2022-11-20T18:39:40;97560.22;;;6.50;88.14
54876;BME280;40764;48.472;8.166;2022-11-20T18:45:40;97557.88;;;5.99;89.99
54876;BME280;40764;48.472;8.166;2022-11-20T18:51:41;97552.81;;;5.82;90.88
54876;BME280;40764;48.472;8.166;2022-11-20T18:57:43;97553.16;;;5.66;91.84
54876;BME280;40764;48.472;8.166;2022-11-20T19:03:43;97532.88;;;5.48;91.83
54876;BME280;40764;48.472;8.166;2022-11-20T19:09:47;97523.72;;;5.39;92.61
54876;BME280;40764;48.472;8.166;2022-11-20T19:15:48;97510.84;;;5.65;91.68
54876;BME280;40764;48.472;8.166;2022-11-20T19:21:48;97513.44;;;5.85;91.51
54876;BME280;40764;48.472;8.166;2022-11-20T19:27:48;97516.72;;;5.77;92.28
54876;BME280;40764;48.472;8.166;2022-11-20T19:33:56;97519.19;;;5.78;92.56
54876;BME280;40764;48.472;8.166;2022-11-20T19:39:57;97520.25;;;5.77;91.76
54876;BME280;40764;48.472;8.166;2022-11-20T19:45:58;97514.25;;;5.85;91.73
54876;BME280;40764;48.472;8.166;2022-11-20T19:51:59;97510.94;;;5.99;91.60
54876;BME280;40764;48.472;8.166;2022-11-20T19:57:59;97505.78;;;5.97;91.37
54876;BME280;40764;48.472;8.166;2022-11-20T20:04:00;97519.34;;;5.97;91.86
54876;BME280;40764;48.472;8.166;2022-11-20T20:10:02;97508.22;;;5.99;90.61
54876;BME280;40764;48.472;8.166;2022-11-20T20:16:06;97511.69;;;6.09;91.14
54876;BME280;40764;48.472;8.166;2022-11-20T20:22:06;97528.97;;;6.18;90.79
54876;BME280;40764;48.472;8.166;2022-11-20T20:28:07;97533.31;;;6.19;90.24
54876;BME280;40764;48.472;8.166;2022-11-20T20:34:07;97533.75;;;6.32;89.46
54876;BME280;40764;48.472;8.166;2022-11-20T20:40:08;97517.03;;;6.19;90.73
54876;BME280;40764;48.472;8.166;2022-11-20T20:46:09;97509.94;;;6.24;89.98
54876;BME280;40764;48.472;8.166;2022-11-20T20:52:09;97521.94;;;6.17;90.60
54876;BME280;40764;48.472;8.166;2022-11-20T20:58:09;97526.88;;;6.44;88.50
54876;BME280;40764;48.472;8.166;2022-11-20T21:04:10;97526.97;;;6.29;90.45
54876;BME280;40764;48.472;8.166;2022-11-20T21:10:11;97531.81;;;6.37;89.58
54876;BME280;40764;48.472;8.166;2022-11-20T21:16:12;97548.13;;;6.32;89.76
54876;BME280;40764;48.472;8.166;2022-11-20T21:22:13;97550.38;;;6.25;90.87
54876;BME280;40764;48.472;8.166;2022-11-20T21:28:13;97540.88;;;6.22;90.67
54876;BME280;40764;48.472;8.166;2022-11-20T21:34:15;97539.22;;;6.27;90.97
54876;BME280;40764;48.472;8.166;2022-11-20T21:40:15;97563.38;;;6.28;91.62
54876;BME280;40764;48.472;8.166;2022-11-20T21:46:16;97575.59;;;6.26;92.35
54876;BME280;40764;48.472;8.166;2022-11-20T21:52:16;97578.56;;;6.29;92.47
54876;BME280;40764;48.472;8.166;2022-11-20T21:58:17;97581.44;;;6.09;93.04
54876;BME280;40764;48.472;8.166;2022-11-20T22:04:17;97580.88;;;6.12;93.73
54876;BME280;40764;48.472;8.166;2022-11-20T22:10:19;97587.63;;;6.14;93.80
54876;BME280;40764;48.472;8.166;2022-11-20T22:16:19;97575.41;;;6.17;94.27
54876;BME280;40764;48.472;8.166;2022-11-20T22:22:19;97603.66;;;6.11;94.73
54876;BME280;40764;48.472;8.166;2022-11-20T22:28:20;97586.88;;;6.04;95.00
54876;BME280;40764;48.472;8.166;2022-11-20T22:34:20;97596.25;;;6.21;94.08
54876;BME280;40764;48.472;8.166;2022-11-20T22:40:20;97606.13;;;6.02;94.76
54876;BME280;40764;48.472;8.166;2022-11-20T22:46:21;97606.66;;;6.04;95.85
54876;BME280;40764;48.472;8.166;2022-11-20T22:52:21;97607.00;;;5.93;96.28
54876;BME280;40764;48.472;8.166;2022-11-20T22:58:22;97594.03;;;5.79;97.78
54876;BME280;40764;48.472;8.166;2022-11-20T23:04:22;97597.63;;;5.65;99.66
54876;BME280;40764;48.472;8.166;2022-11-20T23:10:22;97604.75;;;6.10;98.64
54876;BME280;40764;48.472;8.166;2022-11-20T23:16:25;97583.97;;;5.90;98.50
54876;BME280;40764;48.472;8.166;2022-11-20T23:22:25;97593.38;;;6.03;97.56
54876;BME280;40764;48.472;8.166;2022-11-20T23:28:25;97572.84;;;5.92;96.27
54876;BME280;40764;48.472;8.166;2022-11-20T23:34:26;97571.72;;;5.98;95.01
54876;BME280;40764;48.472;8.166;2022-11-20T23:40:26;97565.50;;;5.87;95.30
54876;BME280;40764;48.472;8.166;2022-11-20T23:46:26;97561.22;;;6.25;94.44
54876;BME280;40764;48.472;8.166;2022-11-20T23:52:27;97542.13;;;6.35;93.78
54876;BME280;40764;48.472;8.166;2022-11-20T23:58:35;97522.06;;;6.31;94.12
